Time;durP1;ratioP1;P1;durP2;ratioP2;P2;SDS_P1;SDS_P2;PMS_P1;PMS_P2;Temp;Humidity;BMP_temperature;BMP_pressure;BME280_temperature;BME280_humidity;BME280_pressure;Samples;Min_cycle;Max_cycle;Signal;HPM_P1;HPM_P2
2022/09/19 00:00:01;;;;;;;2.72;1.70;;;;;;;;;;4795585;29;20053;-76
2022/09/19 00:02:28;;;;;;;3.17;1.75;;;;;;;;;;4794872;30;20043;-76
2022/09/19 00:04:54;;;;;;;2.45;1.52;;;;;;;;;;4794569;30;20047;-76
2022/09/19 00:07:21;;;;;;;2.90;1.70;;;;;;;;;;4794605;30;20047;-76
2022/09/19 00:09:47;;;;;;;4.32;2.00;;;;;;;;;;4794533;29;20123;-76
2022/09/19 00:12:14;;;;;;;2.60;1.83;;;;;;;;;;4794857;30;20047;-76
2022/09/19 00:14:40;;;;;;;2.92;1.90;;;;;;;;;;4794759;29;20104;-76
2022/09/19 00:17:07;;;;;;;2.00;1.60;;;;;;;;;;4793049;29;20403;-76
2022/09/19 00:19:34;;;;;;;4.65;1.42;;;;;;;;;;4791515;29;20085;-76
2022/09/19 00:22:01;;;;;;;3.15;1.73;;;;;;;;;;4791886;29;20053;-77
2022/09/19 00:24:45;;;;;;;2.90;1.40;;;;;;;;;;4791881;30;20051;-76
2022/09/19 00:27:12;;;;;;;1.88;1.25;;;;;;;;;;4791627;29;20123;-76
2022/09/19 00:29:41;;;;;;;2.25;1.63;;;;;;;;;;4791771;30;20051;-76
2022/09/19 00:32:07;;;;;;;3.65;1.95;;;;;;;;;;4791579;30;20122;-76
2022/09/19 00:34:34;;;;;;;2.45;1.60;;;;;;;;;;4791738;29;20054;-76
2022/09/19 00:37:00;;;;;;;2.22;1.60;;;;;;;;;;4791328;29;20111;-76
2022/09/19 00:39:26;;;;;;;2.45;1.85;;;;;;;;;;4791761;30;20053;-76
2022/09/19 00:41:53;;;;;;;2.83;1.65;;;;;;;;;;4791372;30;20067;-76
2022/09/19 00:44:22;;;;;;;3.28;1.67;;;;;;;;;;4791270;30;20074;-76
2022/09/19 00:46:55;;;;;;;2.92;1.83;;;;;;;;;;4791017;30;20070;-76
2022/09/19 00:49:22;;;;;;;3.60;1.95;;;;;;;;;;4791764;30;20087;-76
2022/09/19 00:51:56;;;;;;;3.58;1.60;;;;;;;;;;4791688;30;20461;-77
2022/09/19 00:54:25;;;;;;;3.25;1.45;;;;;;;;;;4791702;30;20438;-76
2022/09/19 00:56:53;;;;;;;5.35;1.70;;;;;;;;;;4791271;30;20065;-76
2022/09/19 00:59:20;;;;;;;3.35;1.70;;;;;;;;;;4791191;30;20130;-76
2022/09/19 01:01:48;;;;;;;2.97;1.60;;;;;;;;;;4791677;30;20082;-76
2022/09/19 01:04:16;;;;;;;2.90;1.88;;;;;;;;;;4791463;29;20043;-76
2022/09/19 01:07:01;;;;;;;2.80;1.67;;;;;;;;;;4791359;29;20514;-76
2022/09/19 01:09:37;;;;;;;4.05;2.17;;;;;;;;;;4791622;30;20051;-76
2022/09/19 01:12:21;;;;;;;2.60;1.90;;;;;;;;;;4791450;30;20044;-76
2022/09/19 01:14:53;;;;;;;2.75;1.55;;;;;;;;;;4791498;30;20082;-76
2022/09/19 01:17:24;;;;;;;3.28;1.77;;;;;;;;;;4789967;30;20484;-77
2022/09/19 01:20:04;;;;;;;5.38;1.90;;;;;;;;;;4790830;29;20058;-76
2022/09/19 01:22:31;;;;;;;2.90;1.50;;;;;;;;;;4791144;30;20052;-76
2022/09/19 01:25:12;;;;;;;2.42;1.50;;;;;;;;;;4791341;30;20039;-76
2022/09/19 01:27:56;;;;;;;2.80;1.85;;;;;;;;;;4791289;30;20056;-76
2022/09/19 01:30:23;;;;;;;3.58;1.85;;;;;;;;;;4790680;29;20055;-76
2022/09/19 01:32:55;;;;;;;2.10;1.65;;;;;;;;;;4790568;30;20043;-76
2022/09/19 01:35:31;;;;;;;4.90;1.80;;;;;;;;;;4790940;29;20054;-76
2022/09/19 01:38:03;;;;;;;4.18;2.00;;;;;;;;;;4790569;30;20123;-76
2022/09/19 01:40:30;;;;;;;2.60;1.58;;;;;;;;;;4791010;30;20055;-76
2022/09/19 01:42:56;;;;;;;2.22;1.55;;;;;;;;;;4791116;29;20126;-76
2022/09/19 01:45:41;;;;;;;3.00;1.83;;;;;;;;;;4790812;30;20087;-76
2022/09/19 01:48:16;;;;;;;3.25;1.90;;;;;;;;;;4790765;29;20071;-76
2022/09/19 01:51:03;;;;;;;2.33;1.55;;;;;;;;;;4790818;29;20063;-76
2022/09/19 01:53:36;;;;;;;2.33;1.60;;;;;;;;;;4790306;29;20051;-76
2022/09/19 01:56:09;;;;;;;4.60;1.88;;;;;;;;;;4790256;30;20051;-77
2022/09/19 01:58:43;;;;;;;2.25;1.88;;;;;;;;;;4789865;30;20050;-76
2022/09/19 02:01:29;;;;;;;3.15;1.77;;;;;;;;;;4790359;30;20047;-76
2022/09/19 02:03:56;;;;;;;5.32;2.03;;;;;;;;;;4789128;29;20047;-76
2022/09/19 02:06:22;;;;;;;3.60;1.98;;;;;;;;;;4789803;30;20043;-76
2022/09/19 02:08:53;;;;;;;3.90;1.67;;;;;;;;;;4789783;30;20046;-76
2022/09/19 02:11:19;;;;;;;;;;;;;;;;;;4789023;30;20043;-76
2022/09/19 02:14:10;;;;;;;2.40;1.70;;;;;;;;;;4790009;29;19913;-76
2022/09/19 02:16:39;;;;;;;2.72;1.90;;;;;;;;;;4789717;29;20130;-76
2022/09/19 02:19:12;;;;;;;3.33;1.48;;;;;;;;;;4790366;30;20047;-76
2022/09/19 02:22:08;;;;;;;3.53;1.83;;;;;;;;;;4789962;30;20079;-76
2022/09/19 02:24:36;;;;;;;4.18;1.90;;;;;;;;;;4789105;29;20049;-76
2022/09/19 02:27:08;;;;;;;2.42;1.42;;;;;;;;;;4789724;30;20055;-76
2022/09/19 02:29:36;;;;;;;3.97;1.95;;;;;;;;;;4790065;30;20122;-76
2022/09/19 02:32:03;;;;;;;4.32;1.80;;;;;;;;;;4789561;29;20530;-76
2022/09/19 02:34:29;;;;;;;4.28;1.80;;;;;;;;;;4789707;30;20054;-76
2022/09/19 02:37:15;;;;;;;4.03;1.77;;;;;;;;;;4789232;30;20047;-76
2022/09/19 02:40:03;;;;;;;2.00;1.55;;;;;;;;;;4789818;30;20051;-76
2022/09/19 02:42:30;;;;;;;4.13;1.88;;;;;;;;;;4789255;30;20113;-76
2022/09/19 02:45:28;;;;;;;4.35;2.00;;;;;;;;;;4789327;30;20069;-76
2022/09/19 02:48:18;;;;;;;4.07;1.70;;;;;;;;;;4788776;29;20478;-76
2022/09/19 02:50:48;;;;;;;3.85;1.65;;;;;;;;;;4788867;29;20059;-76
2022/09/19 02:53:19;;;;;;;7.85;1.85;;;;;;;;;;4789536;30;20047;-76
2022/09/19 02:55:50;;;;;;;2.33;1.55;;;;;;;;;;4789938;29;20484;-76
2022/09/19 02:58:18;;;;;;;4.28;1.80;;;;;;;;;;4789776;29;20043;-76
2022/09/19 03:00:52;;;;;;;3.80;1.65;;;;;;;;;;4789543;30;20051;-76
2022/09/19 03:06:16;;;;;;;3.30;1.70;;;;;;;;;;4789078;30;20051;-76
2022/09/19 03:08:45;;;;;;;2.72;1.80;;;;;;;;;;4789421;29;20100;-77
2022/09/19 03:11:16;;;;;;;2.88;1.50;;;;;;;;;;4789925;30;20035;-76
2022/09/19 03:13:43;;;;;;;3.17;1.80;;;;;;;;;;4789858;29;20500;-76
2022/09/19 03:16:11;;;;;;;4.40;1.70;;;;;;;;;;4789530;29;20035;-76
2022/09/19 03:18:38;;;;;;;3.63;2.03;;;;;;;;;;4789958;30;20051;-76
2022/09/19 03:21:07;;;;;;;2.63;1.60;;;;;;;;;;4789495;30;20051;-76
2022/09/19 03:23:58;;;;;;;3.20;1.55;;;;;;;;;;4789899;30;20058;-76
2022/09/19 03:26:28;;;;;;;4.00;1.67;;;;;;;;;;4789630;29;20051;-76
2022/09/19 03:28:54;;;;;;;3.58;1.80;;;;;;;;;;4789408;30;20054;-76
2022/09/19 03:31:21;;;;;;;4.78;1.75;;;;;;;;;;4789741;29;20130;-76
2022/09/19 03:33:48;;;;;;;4.10;1.63;;;;;;;;;;4789919;30;20047;-76
2022/09/19 03:36:15;;;;;;;3.17;1.45;;;;;;;;;;4789383;29;20484;-76
2022/09/19 03:38:44;;;;;;;3.42;1.98;;;;;;;;;;4789120;29;20054;-76
2022/09/19 03:41:21;;;;;;;6.85;1.98;;;;;;;;;;4789477;29;20131;-76
2022/09/19 03:43:47;;;;;;;3.13;1.70;;;;;;;;;;4789565;30;20125;-76
2022/09/19 03:46:19;;;;;;;5.38;1.80;;;;;;;;;;4789194;30;20138;-76
2022/09/19 03:48:46;;;;;;;2.60;1.90;;;;;;;;;;4789743;30;20051;-76
2022/09/19 03:51:15;;;;;;;4.35;1.73;;;;;;;;;;4789134;30;20047;-76
2022/09/19 03:53:42;;;;;;;2.55;1.65;;;;;;;;;;4792058;29;20043;-76
2022/09/19 03:56:10;;;;;;;2.83;1.65;;;;;;;;;;4792620;30;20476;-76
2022/09/19 03:58:36;;;;;;;4.75;1.95;;;;;;;;;;4792543;29;20069;-76
2022/09/19 04:01:03;;;;;;;4.70;1.90;;;;;;;;;;4792499;30;20060;-76
2022/09/19 04:03:30;;;;;;;3.35;1.65;;;;;;;;;;4792999;30;20075;-76
2022/09/19 04:05:56;;;;;;;3.28;1.80;;;;;;;;;;4792510;30;20054;-76
2022/09/19 04:08:22;;;;;;;2.28;1.60;;;;;;;;;;4792080;30;20043;-76
2022/09/19 04:10:49;;;;;;;2.75;1.70;;;;;;;;;;4792121;30;20055;-76
2022/09/19 04:13:15;;;;;;;3.13;1.77;;;;;;;;;;4792528;29;20051;-76
2022/09/19 04:15:41;;;;;;;4.05;2.03;;;;;;;;;;4792022;30;20047;-76
2022/09/19 04:18:07;;;;;;;2.22;1.50;;;;;;;;;;4792271;30;20086;-76
2022/09/19 04:20:33;;;;;;;2.47;1.70;;;;;;;;;;4791879;29;20047;-76
2022/09/19 04:23:00;;;;;;;5.40;1.98;;;;;;;;;;4791974;30;20055;-76
2022/09/19 04:25:35;;;;;;;2.80;1.65;;;;;;;;;;4792577;30;20492;-76
2022/09/19 04:28:04;;;;;;;4.78;1.60;;;;;;;;;;4792458;29;20051;-76
2022/09/19 04:30:31;;;;;;;2.35;1.77;;;;;;;;;;4791901;29;20112;-76
2022/09/19 04:32:58;;;;;;;3.22;1.77;;;;;;;;;;4792034;30;20476;-76
2022/09/19 04:35:24;;;;;;;4.05;1.70;;;;;;;;;;4791654;29;20122;-76
2022/09/19 04:37:50;;;;;;;2.50;1.60;;;;;;;;;;4791507;30;20099;-76
2022/09/19 04:40:16;;;;;;;3.92;1.98;;;;;;;;;;4791579;29;20058;-76
2022/09/19 04:42:45;;;;;;;3.70;2.00;;;;;;;;;;4791570;30;20051;-76
2022/09/19 04:45:12;;;;;;;4.07;2.03;;;;;;;;;;4791819;30;20059;-77
2022/09/19 04:47:39;;;;;;;5.05;1.80;;;;;;;;;;4791758;29;20133;-76
2022/09/19 04:50:09;;;;;;;3.67;2.22;;;;;;;;;;4791395;30;20460;-76
2022/09/19 04:52:37;;;;;;;4.18;1.70;;;;;;;;;;4791624;30;20046;-77
2022/09/19 04:55:04;;;;;;;3.05;1.70;;;;;;;;;;4791359;30;20563;-76
2022/09/19 04:57:30;;;;;;;3.35;1.90;;;;;;;;;;4792111;29;20131;-76
2022/09/19 04:59:56;;;;;;;4.45;1.70;;;;;;;;;;4786014;30;20138;-76
2022/09/19 05:02:22;;;;;;;4.50;2.20;;;;;;;;;;4773174;30;20052;-76
2022/09/19 05:04:48;;;;;;;3.05;1.50;;;;;;;;;;4771676;30;20121;-77
2022/09/19 05:07:14;;;;;;;3.08;1.80;;;;;;;;;;4771987;30;20039;-76
2022/09/19 05:09:44;;;;;;;3.22;1.98;;;;;;;;;;4772589;30;20534;-76
2022/09/19 05:12:11;;;;;;;4.43;1.77;;;;;;;;;;4766411;30;20058;-75
2022/09/19 05:14:37;;;;;;;3.88;2.20;;;;;;;;;;4772398;30;20147;-75
2022/09/19 05:17:03;;;;;;;2.38;1.80;;;;;;;;;;4772707;30;20120;-75
2022/09/19 05:19:32;;;;;;;3.47;1.90;;;;;;;;;;4771735;30;20108;-76
2022/09/19 05:21:58;;;;;;;5.18;1.55;;;;;;;;;;4772750;30;20108;-75
2022/09/19 05:24:24;;;;;;;2.15;1.58;;;;;;;;;;4772958;30;20048;-76
2022/09/19 05:26:50;;;;;;;4.35;2.13;;;;;;;;;;4772544;30;20047;-76
2022/09/19 05:29:17;;;;;;;3.97;2.38;;;;;;;;;;4772570;30;20112;-75
2022/09/19 05:31:45;;;;;;;4.10;1.92;;;;;;;;;;4772345;30;20062;-76
2022/09/19 05:34:13;;;;;;;4.25;2.28;;;;;;;;;;4771752;30;20044;-77
2022/09/19 05:36:52;;;;;;;4.57;1.75;;;;;;;;;;4771899;30;20047;-76
2022/09/19 05:39:18;;;;;;;4.68;2.10;;;;;;;;;;4771348;30;20079;-76
2022/09/19 05:41:44;;;;;;;4.07;2.15;;;;;;;;;;4770480;30;20204;-76
2022/09/19 05:44:13;;;;;;;4.45;2.10;;;;;;;;;;4769938;30;20035;-76
2022/09/19 05:46:39;;;;;;;4.05;2.00;;;;;;;;;;4764991;30;20063;-76
2022/09/19 05:49:06;;;;;;;4.03;2.50;;;;;;;;;;4770381;30;20059;-76
2022/09/19 05:51:33;;;;;;;2.85;1.80;;;;;;;;;;4784732;30;20055;-76
2022/09/19 05:53:59;;;;;;;3.22;1.90;;;;;;;;;;4788259;30;20079;-77
2022/09/19 05:56:25;;;;;;;2.70;2.00;;;;;;;;;;4772796;29;20059;-79
2022/09/19 05:58:54;;;;;;;7.85;2.13;;;;;;;;;;4775396;30;20048;-77
2022/09/19 06:01:21;;;;;;;4.00;1.85;;;;;;;;;;4768408;30;20063;-76
2022/09/19 06:03:47;;;;;;;6.15;1.70;;;;;;;;;;4771199;30;20536;-77
2022/09/19 06:06:18;;;;;;;6.03;2.33;;;;;;;;;;4770713;30;20050;-76
2022/09/19 06:08:45;;;;;;;6.47;1.85;;;;;;;;;;4772274;30;20052;-76
2022/09/19 06:11:11;;;;;;;6.13;2.15;;;;;;;;;;4773007;30;20040;-77
2022/09/19 06:14:23;;;;;;;5.35;2.22;;;;;;;;;;4771413;30;20638;-76
2022/09/19 06:16:27;;;;;;;4.85;2.00;;;;;;;;;;4769046;30;20046;-76
2022/09/19 06:18:53;;;;;;;5.40;2.75;;;;;;;;;;4771067;30;20051;-74
2022/09/19 06:21:19;;;;;;;9.10;2.55;;;;;;;;;;4771840;30;20048;-75
2022/09/19 06:23:45;;;;;;;3.53;2.40;;;;;;;;;;4771185;30;20147;-76
2022/09/19 06:26:11;;;;;;;4.95;1.90;;;;;;;;;;4777226;30;20043;-76
2022/09/19 06:28:38;;;;;;;4.82;2.00;;;;;;;;;;4770960;30;20047;-74
2022/09/19 06:31:04;;;;;;;5.13;2.10;;;;;;;;;;4771537;30;20039;-75
2022/09/19 06:33:34;;;;;;;9.80;2.08;;;;;;;;;;4771628;30;20063;-76
2022/09/19 06:36:00;;;;;;;7.03;2.10;;;;;;;;;;4771671;30;20070;-75
2022/09/19 06:38:27;;;;;;;9.00;2.70;;;;;;;;;;4770843;30;20052;-76
2022/09/19 06:40:53;;;;;;;6.93;2.15;;;;;;;;;;4769649;30;20055;-75
2022/09/19 06:43:21;;;;;;;7.90;2.40;;;;;;;;;;4770217;30;20396;-76
2022/09/19 06:45:47;;;;;;;7.32;2.03;;;;;;;;;;4771188;30;20056;-76
2022/09/19 06:48:13;;;;;;;8.30;2.17;;;;;;;;;;4774910;30;20059;-78
2022/09/19 06:50:40;;;;;;;10.65;2.45;;;;;;;;;;4772687;30;20044;-77
2022/09/19 06:53:06;;;;;;;11.45;2.38;;;;;;;;;;4778320;30;20090;-77
2022/09/19 06:55:32;;;;;;;10.60;2.03;;;;;;;;;;4772589;30;20058;-76
2022/09/19 06:58:03;;;;;;;12.00;2.20;;;;;;;;;;4771374;30;20216;-78
2022/09/19 07:00:31;;;;;;;8.48;2.50;;;;;;;;;;4771102;30;20043;-78
2022/09/19 07:03:03;;;;;;;12.23;2.17;;;;;;;;;;4770754;30;20059;-78
2022/09/19 07:05:34;;;;;;;8.88;2.15;;;;;;;;;;4767794;30;20082;-76
2022/09/19 07:08:00;;;;;;;7.65;2.58;;;;;;;;;;4769996;30;20047;-76
2022/09/19 07:10:27;;;;;;;5.47;2.17;;;;;;;;;;4771366;30;20047;-76
2022/09/19 07:13:01;;;;;;;10.60;2.42;;;;;;;;;;4768868;30;20062;-75
2022/09/19 07:15:36;;;;;;;4.10;1.70;;;;;;;;;;4771044;30;20072;-74
2022/09/19 07:18:05;;;;;;;7.05;2.10;;;;;;;;;;4771662;30;20503;-75
2022/09/19 07:20:32;;;;;;;7.50;2.17;;;;;;;;;;4771293;30;20046;-74
2022/09/19 07:22:59;;;;;;;8.02;2.17;;;;;;;;;;4770616;30;20051;-74
2022/09/19 07:25:26;;;;;;;3.92;2.22;;;;;;;;;;4770176;30;20050;-74
2022/09/19 07:27:59;;;;;;;4.45;2.13;;;;;;;;;;4772949;30;20052;-74
2022/09/19 07:30:25;;;;;;;9.57;1.90;;;;;;;;;;4774409;30;20054;-74
2022/09/19 07:32:54;;;;;;;6.50;1.90;;;;;;;;;;4773949;30;20082;-75
2022/09/19 07:35:20;;;;;;;5.53;2.00;;;;;;;;;;4774168;30;20044;-74
2022/09/19 07:37:50;;;;;;;8.90;1.90;;;;;;;;;;4774006;30;20113;-75
2022/09/19 07:40:17;;;;;;;3.75;2.08;;;;;;;;;;4774328;30;20086;-76
2022/09/19 07:42:43;;;;;;;5.32;2.22;;;;;;;;;;4772531;30;20055;-76
2022/09/19 07:45:09;;;;;;;5.95;1.90;;;;;;;;;;4772660;30;20090;-75
2022/09/19 07:47:41;;;;;;;3.67;2.00;;;;;;;;;;4772389;30;20093;-76
2022/09/19 07:50:07;;;;;;;6.13;1.65;;;;;;;;;;4773546;30;20056;-75
2022/09/19 07:52:34;;;;;;;3.33;1.65;;;;;;;;;;4774078;30;20051;-75
2022/09/19 07:55:00;;;;;;;2.90;2.00;;;;;;;;;;4774312;30;20052;-75
2022/09/19 07:57:26;;;;;;;7.50;1.90;;;;;;;;;;4774735;30;20054;-74
2022/09/19 07:59:52;;;;;;;4.28;1.63;;;;;;;;;;4774419;30;20114;-74
2022/09/19 08:02:19;;;;;;;5.22;2.15;;;;;;;;;;4774270;30;20055;-75
2022/09/19 08:04:45;;;;;;;2.47;1.40;;;;;;;;;;4774489;30;20051;-74
2022/09/19 08:07:11;;;;;;;5.68;1.98;;;;;;;;;;4773938;30;20040;-75
2022/09/19 08:09:37;;;;;;;4.47;1.77;;;;;;;;;;4773528;30;20055;-75
2022/09/19 08:12:05;;;;;;;3.28;1.65;;;;;;;;;;4774631;30;20565;-76
2022/09/19 08:14:31;;;;;;;3.58;1.30;;;;;;;;;;4774325;30;20071;-75
2022/09/19 08:16:57;;;;;;;3.92;1.25;;;;;;;;;;4783538;30;20046;-76
2022/09/19 08:19:24;;;;;;;4.32;1.48;;;;;;;;;;4780263;30;20462;-75
2022/09/19 08:21:50;;;;;;;2.63;1.48;;;;;;;;;;4773475;30;20051;-76
2022/09/19 08:24:17;;;;;;;2.80;1.50;;;;;;;;;;4773398;30;20040;-75
2022/09/19 08:26:43;;;;;;;4.15;1.55;;;;;;;;;;4774210;30;20048;-77
2022/09/19 08:29:10;;;;;;;2.95;1.50;;;;;;;;;;4786648;30;20134;-75
2022/09/19 08:31:36;;;;;;;2.40;1.33;;;;;;;;;;4773772;30;20051;-75
2022/09/19 08:34:02;;;;;;;2.53;1.50;;;;;;;;;;4773542;30;20055;-75
2022/09/19 08:36:29;;;;;;;1.80;1.50;;;;;;;;;;4773083;30;20047;-76
2022/09/19 08:38:55;;;;;;;2.67;1.60;;;;;;;;;;4770743;30;20056;-75
2022/09/19 08:41:28;;;;;;;2.47;1.83;;;;;;;;;;4769842;30;20125;-75
2022/09/19 08:44:04;;;;;;;3.58;1.65;;;;;;;;;;4773592;30;20047;-75
2022/09/19 08:46:35;;;;;;;4.38;1.48;;;;;;;;;;4772799;30;20099;-74
2022/09/19 08:49:01;;;;;;;;;;;;;;;;;;4773427;30;20071;-73
2022/09/19 08:51:28;;;;;;;3.95;1.40;;;;;;;;;;4773153;30;19921;-73
2022/09/19 08:54:04;;;;;;;3.03;1.52;;;;;;;;;;4773293;30;20136;-75
2022/09/19 08:56:30;;;;;;;3.40;1.40;;;;;;;;;;4772733;30;20508;-73
2022/09/19 08:58:59;;;;;;;3.80;1.55;;;;;;;;;;4770484;30;20043;-73
2022/09/19 09:01:26;;;;;;;4.07;1.63;;;;;;;;;;4769022;30;20056;-74
2022/09/19 09:04:19;;;;;;;4.45;1.95;;;;;;;;;;4772991;30;20054;-74
2022/09/19 09:07:04;;;;;;;5.25;1.73;;;;;;;;;;4772511;30;20632;-74
2022/09/19 09:09:48;;;;;;;2.95;1.70;;;;;;;;;;4772503;29;20055;-74
2022/09/19 09:12:26;;;;;;;4.05;1.55;;;;;;;;;;4773302;30;20048;-73
2022/09/19 09:15:02;;;;;;;3.58;1.63;;;;;;;;;;4786475;30;20083;-73
2022/09/19 09:17:43;;;;;;;3.13;1.48;;;;;;;;;;4791064;29;20063;-73
2022/09/19 09:20:09;;;;;;;;;;;;;;;;;;4776125;30;20058;-74
2022/09/19 09:22:44;;;;;;;2.88;1.60;;;;;;;;;;4773211;30;20003;-74
2022/09/19 09:25:10;;;;;;;5.93;1.50;;;;;;;;;;4771478;30;20052;-74
2022/09/19 09:27:54;;;;;;;2.38;1.60;;;;;;;;;;4754345;30;20139;-73
2022/09/19 09:30:20;;;;;;;6.22;1.75;;;;;;;;;;4772085;30;20059;-74
2022/09/19 09:32:54;;;;;;;3.78;1.70;;;;;;;;;;4773160;30;20047;-74
2022/09/19 09:35:26;;;;;;;6.75;1.75;;;;;;;;;;4771872;30;20052;-74
2022/09/19 09:38:13;;;;;;;3.88;1.75;;;;;;;;;;4772140;30;20130;-74
2022/09/19 09:43:45;;;;;;;1.75;1.60;;;;;;;;;;4780471;29;20055;-74
2022/09/19 09:46:13;;;;;;;3.63;1.60;;;;;;;;;;4771937;30;20060;-74
2022/09/19 09:48:39;;;;;;;3.15;1.77;;;;;;;;;;4772278;30;20070;-73
2022/09/19 09:51:25;;;;;;;4.00;1.70;;;;;;;;;;4772320;30;20514;-74
2022/09/19 09:53:54;;;;;;;2.88;1.48;;;;;;;;;;4768026;30;20400;-74
2022/09/19 09:56:25;;;;;;;3.03;1.50;;;;;;;;;;4772268;30;20052;-73
2022/09/19 09:58:56;;;;;;;2.58;1.45;;;;;;;;;;4771132;30;20130;-73
2022/09/19 10:04:22;;;;;;;2.38;1.50;;;;;;;;;;4761849;30;20043;-73
2022/09/19 10:06:53;;;;;;;3.25;1.40;;;;;;;;;;4771167;30;20136;-73
2022/09/19 10:09:19;;;;;;;;;;;;;;;;;;4772148;30;20504;-72
2022/09/19 10:11:49;;;;;;;4.72;1.50;;;;;;;;;;4771338;30;20059;-73
2022/09/19 10:14:18;;;;;;;2.37;1.67;;;;;;;;;;4771567;30;20135;-73
2022/09/19 10:16:47;;;;;;;2.60;1.70;;;;;;;;;;4770231;30;20043;-73
2022/09/19 10:19:25;;;;;;;3.45;2.00;;;;;;;;;;4773136;30;20047;-75
2022/09/19 10:21:52;;;;;;;3.15;1.70;;;;;;;;;;4770181;30;20044;-75
2022/09/19 10:24:38;;;;;;;4.55;2.47;;;;;;;;;;4771184;30;20043;-74
2022/09/19 10:27:10;;;;;;;4.20;1.75;;;;;;;;;;4771039;30;20134;-74
2022/09/19 10:29:36;;;;;;;4.10;1.88;;;;;;;;;;4771592;30;20055;-74
2022/09/19 10:32:15;;;;;;;3.05;1.60;;;;;;;;;;4770035;30;20136;-75
2022/09/19 10:34:41;;;;;;;3.13;1.70;;;;;;;;;;4771176;30;20055;-75
2022/09/19 10:37:12;;;;;;;2.92;1.80;;;;;;;;;;4769961;30;20075;-75
2022/09/19 10:39:38;;;;;;;;;;;;;;;;;;4771615;30;20131;-74
2022/09/19 10:42:19;;;;;;;5.47;1.73;;;;;;;;;;4771526;30;20013;-75
2022/09/19 10:44:52;;;;;;;2.53;1.65;;;;;;;;;;4770267;30;20079;-74
2022/09/19 10:47:18;;;;;;;2.30;1.70;;;;;;;;;;4772245;30;20516;-75
2022/09/19 10:49:47;;;;;;;5.97;1.92;;;;;;;;;;4788065;30;20111;-74
2022/09/19 10:52:21;;;;;;;4.35;1.58;;;;;;;;;;4788200;30;20035;-74
2022/09/19 10:54:51;;;;;;;6.97;2.00;;;;;;;;;;4780312;29;20109;-74
2022/09/19 10:57:32;;;;;;;2.45;1.45;;;;;;;;;;4769855;30;20074;-74
2022/09/19 11:00:01;;;;;;;3.65;1.50;;;;;;;;;;4769556;30;20500;-74
2022/09/19 11:02:27;;;;;;;2.90;1.70;;;;;;;;;;4785853;29;20062;-73
2022/09/19 11:05:02;;;;;;;1.77;1.50;;;;;;;;;;4770210;30;20043;-73
2022/09/19 11:07:46;;;;;;;2.65;1.95;;;;;;;;;;4770075;30;20048;-75
2022/09/19 11:10:33;;;;;;;2.20;1.70;;;;;;;;;;4769568;30;20086;-75
2022/09/19 11:13:12;;;;;;;3.83;1.52;;;;;;;;;;4770207;30;20048;-74
2022/09/19 11:15:51;;;;;;;4.80;1.85;;;;;;;;;;4767999;30;20078;-74
2022/09/19 11:18:35;;;;;;;2.45;1.35;;;;;;;;;;4770052;30;20050;-74
2022/09/19 11:21:25;;;;;;;8.35;1.90;;;;;;;;;;4770129;30;20051;-74
2022/09/19 11:24:03;;;;;;;2.95;2.10;;;;;;;;;;4770551;30;20051;-74
2022/09/19 11:26:29;;;;;;;2.50;1.50;;;;;;;;;;4770017;30;20052;-74
2022/09/19 11:29:06;;;;;;;2.72;1.90;;;;;;;;;;4770030;30;20046;-74
2022/09/19 11:32:03;;;;;;;5.50;1.83;;;;;;;;;;4774779;30;20526;-74
2022/09/19 11:34:29;;;;;;;2.40;1.75;;;;;;;;;;4788129;29;20108;-74
2022/09/19 11:37:14;;;;;;;5.05;1.83;;;;;;;;;;4772919;30;20059;-74
2022/09/19 11:39:40;;;;;;;4.15;1.75;;;;;;;;;;4768698;30;20424;-74
2022/09/19 11:42:25;;;;;;;1.88;1.65;;;;;;;;;;4769712;30;20059;-74
2022/09/19 11:44:57;;;;;;;4.20;1.77;;;;;;;;;;4770064;30;20090;-74
2022/09/19 11:47:29;;;;;;;2.38;1.60;;;;;;;;;;4768823;30;20217;-74
2022/09/19 11:49:59;;;;;;;2.58;1.63;;;;;;;;;;4769376;30;20083;-74
2022/09/19 11:52:31;;;;;;;3.93;1.90;;;;;;;;;;4769741;30;20543;-73
2022/09/19 11:55:09;;;;;;;4.35;2.17;;;;;;;;;;4770018;30;20043;-73
2022/09/19 11:57:39;;;;;;;5.05;1.65;;;;;;;;;;4766068;30;20060;-73
2022/09/19 12:00:12;;;;;;;2.50;1.58;;;;;;;;;;4774885;30;20044;-74
2022/09/19 12:02:38;;;;;;;4.45;1.90;;;;;;;;;;4772684;29;20134;-73
2022/09/19 12:05:20;;;;;;;2.88;1.65;;;;;;;;;;4768778;30;20047;-73
2022/09/19 12:07:54;;;;;;;2.38;1.55;;;;;;;;;;4770172;30;20112;-73
2022/09/19 12:10:43;;;;;;;2.35;1.50;;;;;;;;;;4769390;30;20124;-73
2022/09/19 12:13:15;;;;;;;2.20;1.50;;;;;;;;;;4760971;30;20055;-73
2022/09/19 12:15:44;;;;;;;3.40;2.10;;;;;;;;;;4772951;30;20047;-73
2022/09/19 12:18:14;;;;;;;4.40;1.48;;;;;;;;;;4773265;30;20048;-73
2022/09/19 12:20:43;;;;;;;4.13;1.60;;;;;;;;;;4772179;30;20124;-73
2022/09/19 12:26:01;;;;;;;2.50;1.73;;;;;;;;;;4755500;30;20048;-74
2022/09/19 12:28:31;;;;;;;1.92;1.52;;;;;;;;;;4768261;30;20048;-74
2022/09/19 12:31:00;;;;;;;7.07;1.67;;;;;;;;;;4773058;30;20078;-74
2022/09/19 12:33:26;;;;;;;5.93;1.55;;;;;;;;;;4773511;30;20056;-73
2022/09/19 12:35:55;;;;;;;2.63;1.58;;;;;;;;;;4772402;30;20048;-73
2022/09/19 12:38:31;;;;;;;3.13;1.75;;;;;;;;;;4771768;30;20059;-74
2022/09/19 12:41:20;;;;;;;3.40;1.55;;;;;;;;;;4790010;29;20058;-74
2022/09/19 12:44:02;;;;;;;3.75;1.65;;;;;;;;;;4801015;29;20572;-71
2022/09/19 12:46:50;;;;;;;3.05;1.90;;;;;;;;;;4768527;30;20144;-72
2022/09/19 12:49:16;;;;;;;2.95;1.23;;;;;;;;;;4772104;30;20043;-73
2022/09/19 12:51:46;;;;;;;2.28;1.58;;;;;;;;;;4771743;30;20055;-73
2022/09/19 12:54:18;;;;;;;1.75;1.40;;;;;;;;;;4772820;30;20047;-73
2022/09/19 12:57:17;;;;;;;2.22;1.50;;;;;;;;;;4772933;30;20052;-73
2022/09/19 12:59:46;;;;;;;5.13;1.67;;;;;;;;;;4771004;30;20055;-73
2022/09/19 13:02:45;;;;;;;2.23;1.40;;;;;;;;;;4772380;30;20059;-72
2022/09/19 13:05:22;;;;;;;1.58;1.13;;;;;;;;;;4779782;29;20055;-73
2022/09/19 13:08:17;;;;;;;1.55;1.25;;;;;;;;;;4772270;30;20039;-73
2022/09/19 13:10:43;;;;;;;1.48;1.30;;;;;;;;;;4779227;29;20582;-73
2022/09/19 13:13:31;;;;;;;1.83;1.60;;;;;;;;;;4771044;30;20047;-72
2022/09/19 13:16:01;;;;;;;1.55;1.40;;;;;;;;;;4771879;30;20048;-72
2022/09/19 13:24:11;;;;;;;4.32;1.60;;;;;;;;;;4787966;29;20059;-73
2022/09/19 13:26:38;;;;;;;2.08;1.40;;;;;;;;;;4770224;30;20105;-71
2022/09/19 13:29:16;;;;;;;2.50;1.63;;;;;;;;;;4772250;30;20039;-72
2022/09/19 13:31:42;;;;;;;5.38;1.50;;;;;;;;;;4772156;30;20064;-72
2022/09/19 13:34:27;;;;;;;2.95;1.52;;;;;;;;;;4770987;30;20396;-72
2022/09/19 13:36:53;;;;;;;1.70;1.50;;;;;;;;;;4756148;30;20048;-72
2022/09/19 13:39:39;;;;;;;2.72;1.75;;;;;;;;;;4771499;30;20482;-72
2022/09/19 13:42:06;;;;;;;3.60;1.60;;;;;;;;;;4771397;30;20054;-71
2022/09/19 13:44:49;;;;;;;3.03;2.10;;;;;;;;;;4775496;30;20114;-72
2022/09/19 13:47:19;;;;;;;2.58;1.55;;;;;;;;;;4771658;30;20077;-71
2022/09/19 13:49:53;;;;;;;1.73;1.50;;;;;;;;;;4770980;30;20054;-72
2022/09/19 13:52:22;;;;;;;2.67;1.92;;;;;;;;;;4771426;30;20543;-70
2022/09/19 13:54:54;;;;;;;2.88;2.05;;;;;;;;;;4773051;30;20054;-70
2022/09/19 13:57:24;;;;;;;3.20;1.65;;;;;;;;;;4771826;30;20539;-70
2022/09/19 13:59:51;;;;;;;2.13;1.58;;;;;;;;;;4770651;30;20047;-70
2022/09/19 14:02:23;;;;;;;4.95;2.00;;;;;;;;;;4771592;30;20051;-70
2022/09/19 14:05:10;;;;;;;5.03;2.08;;;;;;;;;;4769796;30;20047;-71
2022/09/19 14:07:50;;;;;;;2.30;1.90;;;;;;;;;;4770689;30;20161;-70
2022/09/19 14:10:21;;;;;;;3.95;1.88;;;;;;;;;;4770691;30;20458;-70
2022/09/19 14:12:49;;;;;;;3.17;2.13;;;;;;;;;;4771146;30;20051;-70
2022/09/19 14:15:33;;;;;;;2.50;2.10;;;;;;;;;;4771256;30;20044;-70
2022/09/19 14:18:08;;;;;;;4.22;2.03;;;;;;;;;;4770670;30;20043;-70
2022/09/19 14:20:54;;;;;;;2.33;1.92;;;;;;;;;;4770044;30;20044;-70
2022/09/19 14:23:22;;;;;;;3.00;1.65;;;;;;;;;;4770976;30;20056;-70
2022/09/19 14:26:18;;;;;;;2.42;1.77;;;;;;;;;;4771204;30;20079;-70
2022/09/19 14:29:04;;;;;;;4.32;2.00;;;;;;;;;;4772137;30;20044;-70
2022/09/19 14:31:31;;;;;;;4.35;1.98;;;;;;;;;;4771247;30;20067;-69
2022/09/19 14:34:18;;;;;;;2.55;1.60;;;;;;;;;;4769804;30;20101;-71
2022/09/19 14:36:52;;;;;;;3.53;2.10;;;;;;;;;;4766348;30;20103;-70
2022/09/19 14:39:36;;;;;;;2.42;1.77;;;;;;;;;;4770013;30;20130;-71
2022/09/19 14:42:21;;;;;;;2.97;2.00;;;;;;;;;;4771123;30;20467;-71
2022/09/19 14:44:56;;;;;;;2.78;1.90;;;;;;;;;;4770465;30;20044;-71
2022/09/19 14:47:43;;;;;;;2.20;1.75;;;;;;;;;;4770359;30;20042;-71
2022/09/19 14:50:18;;;;;;;3.50;1.88;;;;;;;;;;4770318;30;20512;-71
2022/09/19 14:52:54;;;;;;;2.63;2.13;;;;;;;;;;4769910;30;20068;-71
2022/09/19 14:55:22;;;;;;;3.30;1.98;;;;;;;;;;4771190;30;20051;-71
2022/09/19 14:57:51;;;;;;;2.35;2.15;;;;;;;;;;4770136;30;20105;-70
2022/09/19 15:00:35;;;;;;;3.00;2.25;;;;;;;;;;4770265;30;20086;-71
2022/09/19 15:03:10;;;;;;;2.25;1.95;;;;;;;;;;4770470;30;20054;-71
2022/09/19 15:05:39;;;;;;;3.08;1.75;;;;;;;;;;4770475;30;20056;-70
2022/09/19 15:08:17;;;;;;;7.75;2.22;;;;;;;;;;4769603;30;20044;-70
2022/09/19 15:10:44;;;;;;;2.63;1.92;;;;;;;;;;4769634;30;20143;-71
2022/09/19 15:13:10;;;;;;;4.93;1.90;;;;;;;;;;4770593;30;20059;-71
2022/09/19 15:15:36;;;;;;;2.20;1.85;;;;;;;;;;4770436;30;20127;-71
2022/09/19 15:18:03;;;;;;;1.98;1.38;;;;;;;;;;4768933;30;20060;-71
2022/09/19 15:20:29;;;;;;;5.88;2.17;;;;;;;;;;4769123;30;20077;-72
2022/09/19 15:22:57;;;;;;;3.13;1.65;;;;;;;;;;4762989;30;20075;-72
2022/09/19 15:25:35;;;;;;;4.28;1.85;;;;;;;;;;4769114;30;20043;-71